Time;durP1;ratioP1;P1;durP2;ratioP2;P2;SDS_P1;SDS_P2;PMS_P1;PMS_P2;Temp;Humidity;BMP_temperature;BMP_pressure;BME280_temperature;BME280_humidity;BME280_pressure;Samples;Min_cycle;Max_cycle;Signal;HPM_P1;HPM_P2
2022/11/19 00:01:10;;;;;;;6.95;2.72;;;;;;;2.69;100.00;100250.94;5022133;28;20443;-85
2022/11/19 00:03:37;;;;;;;8.13;3.22;;;;;;;2.67;100.00;100249.38;5027486;28;20033;-86
2022/11/19 00:06:06;;;;;;;5.32;3.08;;;;;;;2.65;100.00;100259.06;5039454;28;20045;-85
2022/11/19 00:08:32;;;;;;;8.88;4.38;;;;;;;2.60;100.00;100259.34;5020546;28;20501;-86
2022/11/19 00:14:14;;;;;;;14.02;7.85;;;;;;;2.51;100.00;100258.19;5043235;28;20049;-85
2022/11/19 00:16:40;;;;;;;12.38;6.20;;;;;;;2.47;100.00;100261.91;5020854;28;20041;-85
2022/11/19 00:19:08;;;;;;;14.95;5.75;;;;;;;2.46;100.00;100248.03;5037402;28;20028;-86
2022/11/19 00:21:34;;;;;;;8.38;4.20;;;;;;;2.47;100.00;100248.84;5023337;28;20021;-85
2022/11/19 00:23:59;;;;;;;8.00;3.97;;;;;;;2.45;100.00;100241.13;5020782;28;20037;-85
2022/11/19 00:26:25;;;;;;;11.13;3.67;;;;;;;2.50;100.00;100246.03;5031847;28;20159;-85
2022/11/19 00:28:51;;;;;;;12.75;3.60;;;;;;;2.47;100.00;100249.69;5019623;28;20040;-85
2022/11/19 00:31:17;;;;;;;11.63;5.65;;;;;;;2.50;100.00;100247.84;5025037;28;20219;-85
2022/11/19 00:33:44;;;;;;;10.02;4.90;;;;;;;2.45;100.00;100254.16;5016878;28;20186;-86
2022/11/19 00:36:13;;;;;;;5.82;3.38;;;;;;;2.45;100.00;100255.97;5013164;28;20036;-86
2022/11/19 00:38:42;;;;;;;5.10;2.88;;;;;;;2.47;100.00;100256.69;5007324;28;20037;-85
2022/11/19 00:41:07;;;;;;;6.35;4.32;;;;;;;2.42;100.00;100263.97;5013485;28;20029;-85
2022/11/19 00:43:48;;;;;;;8.63;4.72;;;;;;;2.40;100.00;100274.50;5034015;28;20036;-85
2022/11/19 00:46:20;;;;;;;13.75;3.75;;;;;;;2.36;100.00;100275.63;5017340;28;20033;-85
2022/11/19 00:48:47;;;;;;;8.80;3.80;;;;;;;2.32;100.00;100277.59;5025518;28;20037;-85
2022/11/19 00:51:13;;;;;;;5.65;3.00;;;;;;;2.29;100.00;100274.31;5040723;28;20037;-85
2022/11/19 00:53:39;;;;;;;4.88;3.90;;;;;;;2.30;100.00;100276.00;5043636;28;20126;-85
2022/11/19 00:56:08;;;;;;;10.52;3.80;;;;;;;2.31;100.00;100281.13;5021173;28;20557;-85
2022/11/19 00:58:34;;;;;;;9.60;3.63;;;;;;;2.28;100.00;100267.44;5046679;28;20577;-86
2022/11/19 01:01:00;;;;;;;7.55;3.85;;;;;;;2.25;100.00;100273.66;5039374;28;20041;-85
2022/11/19 01:03:26;;;;;;;10.13;2.85;;;;;;;2.26;100.00;100280.59;5017461;28;20031;-85
2022/11/19 01:05:52;;;;;;;10.23;4.93;;;;;;;2.23;100.00;100278.97;5029108;28;20082;-85
2022/11/19 01:08:19;;;;;;;7.28;4.00;;;;;;;2.24;100.00;100272.00;5042929;28;20449;-85
2022/11/19 01:10:45;;;;;;;6.45;3.13;;;;;;;2.25;100.00;100278.03;5035257;28;20398;-85
2022/11/19 01:15:55;;;;;;;9.55;3.15;;;;;;;1.98;100.00;100274.41;5048063;28;20040;-85
2022/11/19 01:18:21;;;;;;;5.72;3.00;;;;;;;1.97;100.00;100272.75;5043952;28;20396;-85
2022/11/19 01:20:47;;;;;;;7.47;2.60;;;;;;;1.98;100.00;100279.63;5040087;28;20063;-85
2022/11/19 01:23:13;;;;;;;8.60;2.92;;;;;;;1.98;100.00;100277.03;5032279;28;20044;-86
2022/11/19 01:25:39;;;;;;;8.25;3.00;;;;;;;2.06;100.00;100279.16;5042167;28;20033;-86
2022/11/19 01:28:05;;;;;;;7.43;3.00;;;;;;;2.13;100.00;100277.88;5041491;28;20037;-85
2022/11/19 01:30:31;;;;;;;11.13;3.10;;;;;;;2.21;100.00;100282.63;5042384;28;20048;-85
2022/11/19 01:32:57;;;;;;;6.07;2.92;;;;;;;2.26;100.00;100274.53;5049397;28;20033;-85
2022/11/19 01:35:23;;;;;;;6.30;2.75;;;;;;;2.29;100.00;100271.72;5051133;28;20370;-85
2022/11/19 01:37:50;;;;;;;6.90;3.03;;;;;;;2.31;100.00;100268.06;5046777;28;20029;-85
2022/11/19 01:40:16;;;;;;;4.75;2.53;;;;;;;2.34;100.00;100273.09;5049720;28;20037;-87
2022/11/19 01:42:52;;;;;;;6.68;3.20;;;;;;;2.17;100.00;100261.09;5050341;28;20124;-86
2022/11/19 01:45:38;;;;;;;7.85;3.13;;;;;;;2.09;100.00;100265.94;5049934;28;20033;-85
2022/11/19 01:48:26;;;;;;;5.97;3.07;;;;;;;2.09;100.00;100256.38;5030622;28;20407;-85
2022/11/19 01:51:00;;;;;;;7.60;3.53;;;;;;;2.12;100.00;100255.31;5040393;28;20393;-86
2022/11/19 01:53:34;;;;;;;7.63;3.55;;;;;;;2.09;100.00;100253.75;5013755;28;20045;-85
2022/11/19 01:56:04;;;;;;;8.52;3.42;;;;;;;2.09;100.00;100256.38;5046956;28;20034;-85
2022/11/19 01:58:35;;;;;;;7.53;3.15;;;;;;;2.12;100.00;100260.53;5005674;28;20041;-85
2022/11/19 02:01:01;;;;;;;5.20;3.28;;;;;;;2.08;100.00;100264.28;5038953;28;20037;-85
2022/11/19 02:03:29;;;;;;;5.82;2.85;;;;;;;2.13;100.00;100269.22;5016893;28;20515;-85
2022/11/19 02:05:55;;;;;;;7.88;3.30;;;;;;;2.09;100.00;100264.19;5046177;28;20045;-85
2022/11/19 02:08:39;;;;;;;9.30;3.33;;;;;;;2.06;100.00;100256.56;5024508;28;20541;-85
2022/11/19 02:11:27;;;;;;;8.45;3.25;;;;;;;2.05;100.00;100251.44;5045858;28;20033;-86
2022/11/19 02:14:21;;;;;;;4.10;2.60;;;;;;;2.04;100.00;100262.81;5046953;28;20033;-86
2022/11/19 02:17:02;;;;;;;7.00;2.97;;;;;;;1.98;100.00;100264.84;5015976;28;20132;-85
2022/11/19 02:19:46;;;;;;;7.07;2.78;;;;;;;1.90;100.00;100267.06;5007658;28;20111;-85
2022/11/19 02:22:46;;;;;;;9.13;3.50;;;;;;;1.91;100.00;100286.16;5022129;28;20140;-85
2022/11/19 02:25:27;;;;;;;7.22;3.42;;;;;;;1.85;100.00;100290.81;5011743;28;20029;-85
2022/11/19 02:28:11;;;;;;;12.70;3.65;;;;;;;1.67;100.00;100295.31;5009488;28;20123;-85
2022/11/19 02:30:42;;;;;;;7.45;4.43;;;;;;;1.58;100.00;100295.88;5045696;28;20033;-85
2022/11/19 02:33:34;;;;;;;7.55;4.13;;;;;;;1.41;100.00;100287.28;5045108;28;20417;-86
2022/11/19 02:36:25;;;;;;;8.48;4.65;;;;;;;1.26;100.00;100282.97;5039232;28;20065;-86
2022/11/19 02:39:01;;;;;;;7.90;4.55;;;;;;;1.22;100.00;100282.28;5039340;28;20041;-86
2022/11/19 02:41:35;;;;;;;;;;;;;;;1.19;100.00;100278.09;5026075;28;20041;-86
2022/11/19 02:47:07;;;;;;;7.90;4.57;;;;;;;1.17;100.00;100282.56;5037717;28;20043;-86
2022/11/19 02:49:37;;;;;;;7.47;4.40;;;;;;;1.16;100.00;100274.84;5024303;28;20481;-86
2022/11/19 02:52:03;;;;;;;8.38;4.78;;;;;;;1.09;100.00;100287.34;5029422;28;20032;-86
2022/11/19 02:54:29;;;;;;;7.60;4.28;;;;;;;1.05;100.00;100285.84;5031525;28;20033;-86
2022/11/19 02:56:57;;;;;;;9.77;4.10;;;;;;;1.02;100.00;100278.22;5030767;28;20045;-86
2022/11/19 03:05:37;;;;;;;8.90;4.38;;;;;;;1.03;100.00;100270.31;5053037;28;20456;-86
2022/11/19 03:08:03;;;;;;;13.40;4.15;;;;;;;1.02;100.00;100260.81;5063080;28;20044;-86
2022/11/19 03:10:44;;;;;;;8.02;4.38;;;;;;;1.07;100.00;100265.75;5048091;28;20029;-86
2022/11/19 03:19:13;;;;;;;9.70;5.10;;;;;;;1.03;100.00;100249.50;5038333;28;20033;-86
2022/11/19 03:21:46;;;;;;;8.35;4.28;;;;;;;1.06;100.00;100253.69;5020912;28;20562;-86
2022/11/19 03:24:19;;;;;;;9.25;4.82;;;;;;;1.07;100.00;100247.53;5049761;28;20033;-86
2022/11/19 03:26:51;;;;;;;13.60;5.38;;;;;;;1.07;100.00;100256.19;5036535;28;20072;-86
2022/11/19 03:29:20;;;;;;;12.00;4.28;;;;;;;1.07;100.00;100251.00;5021321;28;20037;-86
2022/11/19 03:31:50;;;;;;;9.10;5.07;;;;;;;1.09;100.00;100237.88;5044389;28;20045;-86
2022/11/19 03:34:21;;;;;;;5.25;3.88;;;;;;;1.15;100.00;100241.94;5044153;28;20037;-85
2022/11/19 03:36:51;;;;;;;6.82;4.40;;;;;;;1.18;100.00;100247.78;5032330;28;20042;-85
2022/11/19 03:39:19;;;;;;;10.18;4.75;;;;;;;1.16;100.00;100241.84;5026437;28;20501;-86
2022/11/19 03:41:48;;;;;;;8.60;4.50;;;;;;;1.13;100.00;100254.19;5006617;28;20469;-86
2022/11/19 03:44:20;;;;;;;7.30;3.95;;;;;;;1.11;100.00;100254.28;5039986;28;20116;-86
2022/11/19 03:46:52;;;;;;;7.32;3.97;;;;;;;1.13;100.00;100256.78;5044739;28;20064;-86
2022/11/19 03:49:24;;;;;;;5.43;3.80;;;;;;;1.11;100.00;100257.69;5030420;28;20541;-86
2022/11/19 03:51:56;;;;;;;7.75;3.78;;;;;;;1.11;100.00;100270.72;5013109;28;20048;-86
2022/11/19 03:54:22;;;;;;;9.55;4.72;;;;;;;1.10;100.00;100269.03;5039154;28;20037;-86
2022/11/19 03:56:48;;;;;;;6.22;4.10;;;;;;;1.05;100.00;100278.88;5050638;28;20032;-86
2022/11/19 03:59:15;;;;;;;8.73;4.32;;;;;;;1.01;100.00;100286.94;5052311;28;20068;-86
2022/11/19 04:01:45;;;;;;;15.23;5.57;;;;;;;0.99;100.00;100294.84;5047000;28;20750;-85
2022/11/19 04:06:57;;;;;;;7.63;4.40;;;;;;;0.90;100.00;100308.34;5053651;28;20037;-86
2022/11/19 04:09:22;;;;;;;6.97;3.72;;;;;;;0.90;100.00;100311.81;5016568;28;20026;-86
2022/11/19 04:11:48;;;;;;;9.65;5.10;;;;;;;0.90;100.00;100311.81;5029938;28;20033;-85
2022/11/19 04:14:14;;;;;;;11.18;5.00;;;;;;;0.90;100.00;100322.22;5048433;28;20458;-85
2022/11/19 04:16:40;;;;;;;15.77;8.63;;;;;;;0.90;100.00;100319.63;5012547;28;20033;-86
2022/11/19 04:19:05;;;;;;;13.82;6.90;;;;;;;0.82;100.00;100324.41;5033504;28;20393;-85
2022/11/19 04:21:31;;;;;;;6.72;4.20;;;;;;;0.71;100.00;100327.59;5012519;28;20057;-85
2022/11/19 04:23:57;;;;;;;9.25;4.90;;;;;;;0.72;100.00;100324.91;5049407;28;20044;-86
2022/11/19 04:26:23;;;;;;;7.13;4.10;;;;;;;0.77;100.00;100322.06;5060265;28;20033;-85
2022/11/19 04:28:49;;;;;;;7.47;4.07;;;;;;;0.79;100.00;100320.22;5031114;28;20088;-85
2022/11/19 04:31:14;;;;;;;7.45;4.50;;;;;;;0.85;100.00;100332.88;5009238;28;20033;-85
2022/11/19 04:33:40;;;;;;;12.02;6.28;;;;;;;0.91;100.00;100329.09;5019932;28;20675;-86
2022/11/19 04:36:06;;;;;;;8.23;4.45;;;;;;;0.96;100.00;100321.03;5052756;28;20048;-86
2022/11/19 04:38:33;;;;;;;6.82;4.30;;;;;;;1.01;100.00;100320.78;5049390;28;20040;-86
2022/11/19 04:40:59;;;;;;;15.35;5.25;;;;;;;1.05;100.00;100306.69;5034471;28;20087;-85
2022/11/19 04:43:25;;;;;;;4.85;3.92;;;;;;;1.11;100.00;100306.34;5024997;28;20029;-86
2022/11/19 04:45:50;;;;;;;8.15;4.20;;;;;;;1.14;100.00;100306.16;5035572;28;20103;-86
2022/11/19 04:48:16;;;;;;;7.95;4.35;;;;;;;1.18;100.00;100309.44;5014292;28;20033;-86
2022/11/19 04:50:42;;;;;;;7.03;4.13;;;;;;;1.17;100.00;100324.22;5013167;28;20095;-86
2022/11/19 04:53:08;;;;;;;7.95;4.05;;;;;;;1.18;100.00;100325.88;5014025;28;20064;-85
2022/11/19 04:55:33;;;;;;;6.97;4.03;;;;;;;1.16;100.00;100327.75;5033253;28;20371;-85
2022/11/19 04:57:59;;;;;;;6.82;4.30;;;;;;;1.16;100.00;100338.16;5028493;28;20132;-85
2022/11/19 05:00:25;;;;;;;8.27;4.22;;;;;;;1.17;100.00;100331.16;5027529;28;20559;-85
2022/11/19 05:02:51;;;;;;;7.57;4.15;;;;;;;1.17;100.00;100328.56;5046043;28;20080;-85
2022/11/19 05:05:16;;;;;;;5.28;3.80;;;;;;;1.15;100.00;100320.03;5032328;28;20048;-86
2022/11/19 05:07:42;;;;;;;7.18;4.72;;;;;;;1.12;100.00;100315.81;5029498;28;20084;-86
2022/11/19 05:10:08;;;;;;;6.95;3.83;;;;;;;1.06;100.00;100317.00;5015336;28;20025;-85
2022/11/19 05:12:34;;;;;;;6.82;4.07;;;;;;;1.05;100.00;100317.91;5017785;28;20102;-86
2022/11/19 05:15:01;;;;;;;7.85;4.35;;;;;;;1.02;100.00;100319.88;5046040;28;20025;-86
2022/11/19 05:17:26;;;;;;;12.65;5.22;;;;;;;0.95;100.00;100319.38;5031851;28;20037;-86
2022/11/19 05:19:52;;;;;;;6.28;4.05;;;;;;;0.93;100.00;100316.00;5060095;28;20036;-86
2022/11/19 05:22:18;;;;;;;9.77;4.50;;;;;;;0.98;100.00;100319.19;5044689;28;20032;-86
2022/11/19 05:24:44;;;;;;;7.55;4.85;;;;;;;0.99;100.00;100320.84;5030811;28;20039;-86
2022/11/19 05:27:09;;;;;;;6.07;3.80;;;;;;;1.03;100.00;100309.38;5016837;28;20029;-86
2022/11/19 05:29:35;;;;;;;7.03;4.07;;;;;;;0.97;100.00;100305.31;5017616;28;20067;-85
2022/11/19 05:32:01;;;;;;;6.82;3.95;;;;;;;0.90;100.00;100318.78;5017031;28;20036;-85
2022/11/19 05:34:26;;;;;;;6.85;3.90;;;;;;;0.91;100.00;100305.66;5033624;28;20127;-86
2022/11/19 05:36:52;;;;;;;6.28;4.47;;;;;;;0.90;100.00;100301.41;5029233;28;20061;-86
2022/11/19 05:39:18;;;;;;;16.58;6.10;;;;;;;0.82;100.00;100293.16;5040284;28;20033;-86
2022/11/19 05:41:43;;;;;;;9.75;4.35;;;;;;;0.83;100.00;100298.28;5061541;28;20044;-86
2022/11/19 05:44:09;;;;;;;10.05;3.95;;;;;;;0.83;100.00;100295.69;5018224;28;20033;-86
2022/11/19 05:46:35;;;;;;;5.75;3.58;;;;;;;0.85;100.00;100293.00;5030419;28;20051;-81
2022/11/19 05:49:01;;;;;;;5.95;3.83;;;;;;;0.83;100.00;100282.69;5014559;28;20037;-85
2022/11/19 05:51:27;;;;;;;6.82;3.97;;;;;;;0.82;100.00;100287.97;5032500;28;20029;-85
2022/11/19 05:53:52;;;;;;;5.68;3.90;;;;;;;0.73;100.00;100281.53;5041231;28;20037;-86
2022/11/19 05:56:18;;;;;;;5.93;3.83;;;;;;;0.67;100.00;100285.28;5013333;28;20482;-86
2022/11/19 05:58:44;;;;;;;6.35;4.57;;;;;;;0.63;100.00;100273.38;5017157;28;20401;-86
2022/11/19 06:01:10;;;;;;;7.05;4.25;;;;;;;0.65;100.00;100281.94;5039142;28;20505;-86
2022/11/19 06:03:35;;;;;;;6.53;5.07;;;;;;;0.67;100.00;100276.66;5030527;28;20032;-86
2022/11/19 06:06:01;;;;;;;7.53;4.20;;;;;;;0.70;100.00;100266.91;5049802;28;20427;-85
2022/11/19 06:08:27;;;;;;;6.00;4.00;;;;;;;0.68;100.00;100260.13;5016444;28;20028;-86
2022/11/19 06:10:53;;;;;;;7.10;4.63;;;;;;;0.70;100.00;100258.28;5030582;28;20037;-86
2022/11/19 06:13:18;;;;;;;12.05;4.90;;;;;;;0.68;100.00;100262.72;5027239;28;20420;-86
2022/11/19 06:15:44;;;;;;;8.90;5.22;;;;;;;0.59;100.00;100248.47;5006288;28;20523;-85
2022/11/19 06:18:10;;;;;;;10.77;4.50;;;;;;;0.49;100.00;100248.94;5042771;28;20041;-86
2022/11/19 06:20:36;;;;;;;6.68;4.28;;;;;;;0.44;100.00;100247.53;5042653;28;20442;-86
2022/11/19 06:23:01;;;;;;;11.75;4.90;;;;;;;0.38;100.00;100242.66;5029796;28;20033;-86
2022/11/19 06:25:28;;;;;;;10.52;4.07;;;;;;;0.31;100.00;100242.16;5046546;28;20068;-86
2022/11/19 06:27:54;;;;;;;16.58;4.40;;;;;;;0.26;100.00;100238.97;5019288;28;20489;-86
2022/11/19 06:30:19;;;;;;;31.20;4.90;;;;;;;0.27;100.00;100236.28;5048617;28;20111;-85
2022/11/19 06:32:45;;;;;;;34.08;5.95;;;;;;;0.35;100.00;100239.31;5033390;28;20462;-86
2022/11/19 06:35:12;;;;;;;33.80;6.05;;;;;;;0.44;100.00;100244.94;5033221;28;20057;-85
2022/11/19 06:37:37;;;;;;;48.30;5.70;;;;;;;0.45;100.00;100231.00;5033293;28;20452;-86
2022/11/19 06:40:04;;;;;;;22.23;4.65;;;;;;;0.42;100.00;100228.56;5049563;28;20060;-85
2022/11/19 06:42:35;;;;;;;38.42;5.38;;;;;;;0.36;100.00;100225.41;5031663;28;20064;-86
2022/11/19 06:45:09;;;;;;;40.47;5.78;;;;;;;0.34;100.00;100219.44;5032728;28;20037;-85
2022/11/19 06:47:36;;;;;;;59.15;5.72;;;;;;;0.37;100.00;100228.81;5029404;28;20072;-86
2022/11/19 06:50:02;;;;;;;40.47;5.43;;;;;;;0.30;100.00;100224.88;5032351;28;20037;-86
2022/11/19 06:52:27;;;;;;;213.35;8.65;;;;;;;0.28;100.00;100219.78;5046540;28;20429;-85
2022/11/19 06:54:54;;;;;;;112.57;6.88;;;;;;;0.34;100.00;100216.00;5016701;28;20033;-85
2022/11/19 06:57:20;;;;;;;66.07;6.60;;;;;;;0.32;100.00;100212.66;5033316;28;20040;-85
2022/11/19 06:59:46;;;;;;;52.78;6.30;;;;;;;0.35;100.00;100209.88;5048709;28;20041;-85
2022/11/19 07:02:12;;;;;;;49.83;6.95;;;;;;;0.40;100.00;100210.44;5045004;28;20489;-85
2022/11/19 07:04:38;;;;;;;75.25;6.85;;;;;;;0.42;100.00;100203.41;5033459;28;20115;-85
2022/11/19 07:07:04;;;;;;;138.07;8.32;;;;;;;0.36;100.00;100204.59;5033689;28;20536;-86
2022/11/19 07:09:30;;;;;;;36.03;5.65;;;;;;;0.30;100.00;100199.75;5014564;28;20017;-85
2022/11/19 07:11:56;;;;;;;16.42;5.45;;;;;;;0.27;100.00;100199.06;5028601;28;20040;-85
2022/11/19 07:14:22;;;;;;;52.17;6.28;;;;;;;0.29;100.00;100205.84;5032192;28;20037;-86
2022/11/19 07:16:47;;;;;;;11.02;5.47;;;;;;;0.29;100.00;100197.22;5030770;28;20056;-85
2022/11/19 07:19:13;;;;;;;19.33;5.82;;;;;;;0.34;100.00;100210.78;5031860;28;20063;-85
2022/11/19 07:21:39;;;;;;;81.57;6.78;;;;;;;0.36;100.00;100212.41;5032367;28;20076;-86
2022/11/19 07:24:07;;;;;;;90.10;7.53;;;;;;;0.38;100.00;100214.91;5047964;28;20120;-85
2022/11/19 07:26:35;;;;;;;50.63;6.22;;;;;;;0.39;100.00;100210.53;5015935;28;20055;-85
2022/11/19 07:29:04;;;;;;;22.88;5.53;;;;;;;0.38;100.00;100214.91;5019867;28;20123;-85
2022/11/19 07:31:30;;;;;;;117.57;7.20;;;;;;;0.29;100.00;100205.84;5026995;28;20041;-85
2022/11/19 07:33:56;;;;;;;64.85;6.22;;;;;;;0.24;100.00;100197.44;5033335;28;20036;-85
2022/11/19 07:36:22;;;;;;;30.48;6.00;;;;;;;0.16;100.00;100192.66;5041261;28;20042;-86
2022/11/19 07:38:49;;;;;;;21.73;6.38;;;;;;;0.11;100.00;100190.31;5037123;28;20033;-85
2022/11/19 07:43:59;;;;;;;10.90;5.57;;;;;;;0.10;100.00;100188.66;5061127;28;20037;-85
2022/11/19 07:46:25;;;;;;;13.23;5.60;;;;;;;0.17;100.00;100181.38;5032015;28;20040;-86
2022/11/19 07:48:53;;;;;;;15.98;5.60;;;;;;;0.22;100.00;100184.53;5048254;28;20033;-85
2022/11/19 07:51:19;;;;;;;13.35;5.32;;;;;;;0.24;100.00;100182.69;5013696;28;20033;-85
2022/11/19 07:53:45;;;;;;;11.60;5.55;;;;;;;0.27;100.00;100176.47;5018858;28;20045;-86
2022/11/19 07:56:11;;;;;;;9.95;4.93;;;;;;;0.35;100.00;100174.31;5050489;28;20552;-85
2022/11/19 07:58:36;;;;;;;11.18;5.43;;;;;;;0.37;100.00;100176.81;5050605;28;20032;-85
2022/11/19 08:01:16;;;;;;;12.23;5.60;;;;;;;0.43;100.00;100163.47;5011432;28;20036;-85
2022/11/19 08:03:44;;;;;;;10.65;5.88;;;;;;;0.38;100.00;100162.91;5044029;28;20445;-85
2022/11/19 08:06:11;;;;;;;7.65;5.10;;;;;;;0.40;100.00;100166.25;5041810;28;20037;-85
2022/11/19 08:08:37;;;;;;;10.25;4.95;;;;;;;0.42;100.00;100161.81;5053987;28;20021;-85
2022/11/19 08:11:05;;;;;;;7.10;4.57;;;;;;;0.47;100.00;100165.00;5048100;28;20036;-85
2022/11/19 08:13:32;;;;;;;11.13;5.80;;;;;;;0.46;100.00;100154.69;5023415;28;20037;-85
2022/11/19 08:16:02;;;;;;;9.40;4.95;;;;;;;0.45;100.00;100156.44;5032223;28;20033;-85
2022/11/19 08:18:29;;;;;;;9.80;4.88;;;;;;;0.48;100.00;100147.59;5057931;28;20041;-85
2022/11/19 08:20:54;;;;;;;9.65;5.88;;;;;;;0.48;100.00;100142.41;5035943;28;20037;-85
2022/11/19 08:23:23;;;;;;;10.57;5.25;;;;;;;0.47;100.00;100130.34;5019134;28;20664;-85
2022/11/19 08:25:49;;;;;;;10.55;5.10;;;;;;;0.53;100.00;100142.16;5032065;28;20033;-85
2022/11/19 08:28:16;;;;;;;11.15;4.72;;;;;;;0.60;100.00;100136.53;5043729;28;20041;-84
2022/11/19 08:30:41;;;;;;;7.47;5.30;;;;;;;0.64;100.00;100139.78;5035439;28;20033;-85
2022/11/19 08:33:08;;;;;;;10.32;5.55;;;;;;;0.66;100.00;100131.88;5022439;28;20037;-85
2022/11/19 08:35:34;;;;;;;14.20;7.30;;;;;;;0.71;100.00;100150.69;5047045;28;20104;-85
2022/11/19 08:38:01;;;;;;;9.15;6.40;;;;;;;0.73;100.00;100167.06;5052028;28;20504;-85
2022/11/19 08:40:26;;;;;;;17.58;11.10;;;;;;;0.75;100.00;100175.59;5026824;28;20052;-85
2022/11/19 08:43:01;;;;;;;12.32;7.78;;;;;;;0.75;100.00;100167.78;5037644;28;20057;-85
2022/11/19 08:45:36;;;;;;;29.40;17.83;;;;;;;0.81;100.00;100177.03;5013974;28;21255;-85
2022/11/19 08:48:05;;;;;;;80.20;48.72;;;;;;;0.82;100.00;100184.75;5029808;28;20452;-85
2022/11/19 08:50:31;;;;;;;118.53;69.38;;;;;;;0.88;100.00;100174.91;5032634;28;20037;-85
2022/11/19 08:53:00;;;;;;;67.90;42.05;;;;;;;0.98;100.00;100181.25;5046593;28;20444;-85
2022/11/19 08:55:28;;;;;;;66.25;40.10;;;;;;;1.06;100.00;100180.81;5049262;28;20036;-86
2022/11/19 08:58:02;;;;;;;29.08;19.85;;;;;;;1.15;100.00;100182.03;5029613;28;20045;-86
2022/11/19 09:00:29;;;;;;;22.27;14.30;;;;;;;1.17;100.00;100182.78;5041564;28;20040;-86
2022/11/19 09:02:55;;;;;;;11.82;6.85;;;;;;;1.18;100.00;100180.09;5033507;28;20053;-86
2022/11/19 09:05:21;;;;;;;11.23;6.18;;;;;;;1.24;100.00;100173.69;5018551;28;20043;-86
2022/11/19 09:07:47;;;;;;;12.77;8.38;;;;;;;1.32;100.00;100171.44;5035156;28;20036;-85
2022/11/19 09:10:12;;;;;;;15.35;8.00;;;;;;;1.35;100.00;100154.81;5014834;28;20034;-85
2022/11/19 09:12:38;;;;;;;18.48;9.40;;;;;;;1.38;100.00;100152.03;5046521;28;20036;-86
2022/11/19 09:15:05;;;;;;;11.35;6.80;;;;;;;1.42;100.00;100150.91;5017051;28;20036;-86
2022/11/19 09:17:31;;;;;;;12.75;6.93;;;;;;;1.46;100.00;100147.22;5017348;28;20079;-86
2022/11/19 09:19:56;;;;;;;12.88;5.55;;;;;;;1.47;100.00;100150.63;5031999;28;20038;-86
2022/11/19 09:22:22;;;;;;;11.15;5.90;;;;;;;1.55;100.00;100145.81;5018206;28;20036;-85
2022/11/19 09:24:48;;;;;;;11.23;6.20;;;;;;;1.52;100.00;100129.50;5050516;28;20556;-86
2022/11/19 09:27:14;;;;;;;12.60;6.13;;;;;;;1.48;100.00;100127.09;5033516;28;20061;-85
2022/11/19 09:29:40;;;;;;;8.63;5.18;;;;;;;1.46;100.00;100123.78;5051640;28;20074;-85
2022/11/19 09:32:05;;;;;;;9.05;5.50;;;;;;;1.53;100.00;100126.81;5035793;28;20029;-85
2022/11/19 09:34:33;;;;;;;10.13;5.05;;;;;;;1.55;100.00;100121.50;5047247;28;20037;-85
2022/11/19 09:37:00;;;;;;;7.72;5.15;;;;;;;1.63;100.00;100121.88;5064738;28;20086;-85
2022/11/19 09:39:26;;;;;;;17.85;8.32;;;;;;;1.66;100.00;100110.41;5050314;28;20029;-85
2022/11/19 09:42:07;;;;;;;22.45;10.38;;;;;;;1.69;100.00;100097.25;5048521;28;20032;-85
2022/11/19 09:44:40;;;;;;;14.88;7.35;;;;;;;1.63;100.00;100090.63;5015376;28;20037;-85
2022/11/19 09:47:22;;;;;;;15.82;7.70;;;;;;;1.59;100.00;100084.75;5023386;28;20044;-85
2022/11/19 09:50:06;;;;;;;14.93;6.88;;;;;;;1.57;100.00;100080.59;5036545;28;20071;-85
2022/11/19 09:52:39;;;;;;;12.25;4.97;;;;;;;1.49;100.00;100086.25;5037016;28;20038;-85
2022/11/19 09:55:13;;;;;;;11.90;5.57;;;;;;;1.44;100.00;100083.94;5037480;28;20081;-84
2022/11/19 09:57:44;;;;;;;8.93;5.20;;;;;;;1.47;100.00;100085.50;5049295;28;20044;-85
2022/11/19 10:00:16;;;;;;;9.82;5.25;;;;;;;1.50;100.00;100063.66;5010775;28;20036;-85
2022/11/19 10:02:43;;;;;;;10.13;4.68;;;;;;;1.57;100.00;100062.34;5048632;28;20041;-85
2022/11/19 10:05:14;;;;;;;10.10;5.15;;;;;;;1.65;100.00;100062.72;5048570;28;20087;-85
2022/11/19 10:08:08;;;;;;;10.30;5.00;;;;;;;1.73;100.00;100054.41;5011740;28;20033;-85
2022/11/19 10:10:41;;;;;;;9.15;4.35;;;;;;;1.82;100.00;100048.63;5034405;28;20450;-85
2022/11/19 10:13:13;;;;;;;16.88;5.13;;;;;;;1.89;100.00;100049.06;5011257;28;20040;-85
2022/11/19 10:16:03;;;;;;;10.35;5.45;;;;;;;2.03;100.00;100052.53;5014289;28;20501;-85
2022/11/19 10:18:41;;;;;;;9.15;4.50;;;;;;;2.12;100.00;100048.53;5030866;28;20043;-86
2022/11/19 10:21:21;;;;;;;10.43;5.05;;;;;;;2.19;100.00;100045.41;5043479;28;20041;-85
2022/11/19 10:23:58;;;;;;;8.63;4.55;;;;;;;2.27;100.00;100044.06;5005860;28;20393;-85
2022/11/19 10:26:33;;;;;;;4.32;2.70;;;;;;;2.33;100.00;100039.28;5047083;28;20037;-85
2022/11/19 10:29:02;;;;;;;5.53;1.85;;;;;;;2.41;100.00;100030.13;5044721;28;20094;-85
2022/11/19 10:31:36;;;;;;;4.80;1.27;;;;;;;2.58;100.00;100035.06;5047229;28;20032;-85
2022/11/19 10:34:26;;;;;;;3.30;1.40;;;;;;;2.68;100.00;100024.00;5041700;28;20056;-85
2022/11/19 10:37:03;;;;;;;5.15;1.60;;;;;;;2.76;100.00;100021.72;5012303;28;20435;-85
2022/11/19 10:40:01;;;;;;;7.13;1.48;;;;;;;2.86;100.00;100014.09;5032150;28;20129;-86
2022/11/19 10:42:35;;;;;;;7.25;1.60;;;;;;;2.92;100.00;100015.44;5010044;28;20041;-84
2022/11/19 10:45:06;;;;;;;7.72;1.50;;;;;;;2.98;100.00;100007.19;5041168;28;20028;-84
2022/11/19 10:47:47;;;;;;;5.75;1.50;;;;;;;3.05;100.00;100008.44;5026523;28;20056;-85
2022/11/19 10:50:22;;;;;;;6.72;1.70;;;;;;;3.13;100.00;100002.69;5035239;28;20132;-85
2022/11/19 10:52:54;;;;;;;6.82;1.83;;;;;;;3.25;100.00;100011.41;5039225;28;20122;-85
2022/11/19 10:55:42;;;;;;;5.63;1.67;;;;;;;3.34;100.00;100008.16;5043383;28;20041;-85
2022/11/19 10:58:24;;;;;;;6.38;1.88;;;;;;;3.44;100.00;100008.34;5045044;28;20462;-85
2022/11/19 11:00:55;;;;;;;5.70;1.80;;;;;;;3.52;100.00;100005.19;5046696;28;20095;-85
2022/11/19 11:03:44;;;;;;;4.40;1.38;;;;;;;3.56;100.00;99998.81;5051344;28;20076;-86
2022/11/19 11:06:11;;;;;;;5.90;1.65;;;;;;;3.60;100.00;99988.97;5019884;28;20045;-86
2022/11/19 11:08:53;;;;;;;6.00;2.10;;;;;;;3.71;100.00;99977.75;5031208;28;20468;-86
2022/11/19 11:17:05;;;;;;;7.18;1.95;;;;;;;3.94;100.00;99954.31;5046786;28;20453;-86
2022/11/19 11:19:32;;;;;;;6.03;1.80;;;;;;;3.93;100.00;99950.03;5036171;28;20022;-86
2022/11/19 11:21:58;;;;;;;7.80;2.25;;;;;;;3.96;100.00;99939.34;5032353;28;20560;-86
2022/11/19 11:24:37;;;;;;;7.18;1.98;;;;;;;3.96;100.00;99932.34;5016958;28;20030;-86
2022/11/19 11:27:29;;;;;;;8.55;1.67;;;;;;;3.96;100.00;99927.13;5027622;28;20548;-86
2022/11/19 11:30:10;;;;;;;6.95;1.70;;;;;;;3.99;100.00;99923.44;5023068;28;20043;-86
2022/11/19 11:32:38;;;;;;;3.65;1.55;;;;;;;3.97;100.00;99913.06;5039917;28;20028;-85
2022/11/19 11:35:04;;;;;;;7.63;1.40;;;;;;;3.98;100.00;99906.06;5007416;28;20677;-86
2022/11/19 11:37:31;;;;;;;10.68;1.35;;;;;;;3.99;100.00;99902.50;5031054;28;20111;-86
2022/11/19 11:39:58;;;;;;;4.63;1.27;;;;;;;4.02;100.00;99898.81;5011092;28;20037;-87
2022/11/19 11:42:27;;;;;;;4.78;1.10;;;;;;;4.00;100.00;99896.31;5048764;28;20037;-86
2022/11/19 11:44:56;;;;;;;11.90;2.72;;;;;;;4.00;100.00;99896.31;5031104;28;20030;-88
2022/11/19 11:47:30;;;;;;;5.45;1.75;;;;;;;4.02;100.00;99877.88;5034812;28;20074;-88
2022/11/19 11:50:20;;;;;;;2.85;1.25;;;;;;;4.04;100.00;99870.78;5013820;28;20103;-86
2022/11/19 11:52:50;;;;;;;6.82;1.73;;;;;;;4.08;100.00;99865.19;5039945;28;20490;-85
2022/11/19 11:55:37;;;;;;;5.70;1.23;;;;;;;4.14;100.00;99857.84;5040584;28;20494;-86
2022/11/19 11:58:22;;;;;;;5.28;2.10;;;;;;;4.21;100.00;99853.78;5044474;28;20033;-85
2022/11/19 12:00:48;;;;;;;5.97;1.60;;;;;;;4.25;100.00;99857.00;5027471;28;20037;-86
2022/11/19 12:03:17;;;;;;;6.25;1.95;;;;;;;4.33;100.00;99845.00;5047849;28;20501;-86
2022/11/19 12:06:11;;;;;;;7.65;1.65;;;;;;;4.37;100.00;99832.50;5006900;28;20523;-86